createdAt,value
2019-05-20T00:00:53.219Z,20.88
2019-05-20T00:02:57.173Z,23.30
2019-05-20T00:05:02.743Z,21.80
2019-05-20T00:07:06.841Z,22.13
2019-05-20T00:09:11.037Z,21.57
2019-05-20T00:11:15.143Z,20.72
2019-05-20T00:13:18.977Z,21.60
2019-05-20T00:15:22.944Z,22.48
2019-05-20T00:17:28.375Z,20.75
2019-05-20T00:19:33.719Z,21.37
2019-05-20T00:21:37.557Z,23.55
2019-05-20T00:23:42.754Z,21.33
2019-05-20T00:25:46.672Z,23.55
2019-05-20T00:27:50.794Z,24.57
2019-05-20T00:29:54.796Z,23.73
2019-05-20T00:31:58.906Z,21.93
2019-05-20T00:34:02.931Z,22.35
2019-05-20T00:36:06.838Z,21.75
2019-05-20T00:38:10.757Z,20.90
2019-05-20T00:40:14.753Z,21.07
2019-05-20T00:42:18.740Z,22.15
2019-05-20T00:44:22.859Z,23.38
2019-05-20T00:46:26.759Z,22.75
2019-05-20T00:48:30.660Z,22.15
2019-05-20T00:50:35.167Z,20.90
2019-05-20T00:52:39.294Z,22.48
2019-05-20T00:54:43.199Z,21.93
2019-05-20T00:56:48.944Z,21.37
2019-05-20T00:58:54.340Z,21.93
2019-05-20T01:01:21.001Z,23.40
2019-05-20T01:03:26.487Z,25.00
2019-05-20T01:05:33.188Z,22.40
2019-05-20T01:07:37.194Z,21.10
2019-05-20T01:09:41.054Z,23.92
2019-05-20T01:11:45.108Z,22.55
2019-05-20T01:13:50.185Z,23.35
2019-05-20T01:15:54.146Z,21.42
2019-05-20T01:17:58.154Z,22.98
2019-05-20T01:20:02.139Z,23.10
2019-05-20T01:22:05.949Z,20.92
2019-05-20T01:24:09.878Z,22.93
2019-05-20T01:26:15.877Z,24.10
2019-05-20T01:28:25.667Z,21.45
2019-05-20T01:30:29.820Z,20.68
2019-05-20T01:32:33.859Z,22.60
2019-05-20T01:34:37.835Z,21.23
2019-05-20T01:36:41.800Z,21.45
2019-05-20T01:38:45.809Z,23.05
2019-05-20T01:40:49.856Z,21.17
2019-05-20T01:42:53.926Z,22.25
2019-05-20T01:44:59.576Z,21.07
2019-05-20T01:47:03.494Z,22.82
2019-05-20T01:49:08.858Z,22.50
2019-05-20T01:51:12.701Z,23.62
2019-05-20T01:53:16.570Z,25.60
2019-05-20T01:55:23.297Z,24.32
2019-05-20T01:57:27.288Z,24.98
2019-05-20T01:59:31.414Z,21.65
2019-05-20T02:01:35.628Z,21.87
2019-05-20T02:03:40.729Z,20.82
2019-05-20T02:05:44.715Z,20.32
2019-05-20T02:07:48.679Z,21.80
2019-05-20T02:09:52.580Z,20.08
2019-05-20T02:11:56.484Z,20.62
2019-05-20T02:14:01.946Z,20.12
2019-05-20T02:16:07.358Z,21.33
2019-05-20T02:18:11.243Z,23.10
2019-05-20T02:20:17.176Z,20.65
2019-05-20T02:22:20.864Z,21.52
2019-05-20T02:24:25.572Z,22.37
2019-05-20T02:26:29.641Z,21.57
2019-05-20T02:28:33.530Z,20.90
2019-05-20T02:30:37.884Z,22.10
2019-05-20T02:32:41.890Z,20.92
2019-05-20T02:34:46.204Z,20.80
2019-05-20T02:36:50.450Z,20.27
2019-05-20T02:38:54.343Z,20.97
2019-05-20T02:40:58.226Z,20.10
2019-05-20T02:43:02.335Z,20.92
2019-05-20T02:45:09.207Z,22.13
2019-05-20T02:47:13.083Z,20.32
2019-05-20T02:49:17.350Z,20.45
2019-05-20T02:51:22.994Z,19.90
2019-05-20T02:53:26.982Z,21.27
2019-05-20T02:55:30.987Z,18.57
2019-05-20T02:57:34.995Z,20.15
2019-05-20T02:59:39.210Z,19.82
2019-05-20T03:01:43.168Z,21.80
2019-05-20T03:03:47.223Z,22.70
2019-05-20T03:05:51.107Z,25.10
2019-05-20T03:07:57.991Z,23.85
2019-05-20T03:10:01.870Z,22.40
2019-05-20T03:12:05.882Z,22.17
2019-05-20T03:14:10.183Z,21.60
2019-05-20T03:16:15.754Z,24.52
2019-05-20T03:18:20.093Z,23.75
2019-05-20T03:20:24.201Z,22.60
2019-05-20T03:22:28.117Z,25.15
2019-05-20T03:24:32.113Z,20.50
2019-05-20T03:26:36.021Z,23.73
2019-05-20T03:28:39.914Z,22.93
2019-05-20T03:30:44.589Z,22.55
2019-05-20T03:32:48.545Z,22.20
2019-05-20T03:34:59.913Z,24.12
2019-05-20T03:37:02.837Z,24.37
2019-05-20T03:39:07.528Z,21.77
2019-05-20T03:41:12.878Z,23.07
2019-05-20T03:43:16.987Z,22.45
2019-05-20T03:45:21.003Z,22.37
2019-05-20T03:47:25.016Z,21.80
2019-05-20T03:49:29.022Z,24.72
2019-05-20T03:51:32.918Z,21.35
2019-05-20T03:53:36.828Z,21.97
2019-05-20T03:55:40.836Z,21.65
2019-05-20T03:57:44.938Z,23.02
2019-05-20T03:59:48.827Z,21.27
2019-05-20T04:01:52.810Z,21.80
2019-05-20T04:03:56.863Z,21.42
2019-05-20T04:06:00.863Z,20.85
2019-05-20T04:08:12.359Z,22.98
2019-05-20T04:10:16.259Z,21.37
2019-05-20T04:12:26.063Z,23.62
2019-05-20T04:14:29.979Z,19.50
2019-05-20T04:16:33.864Z,23.75
2019-05-20T04:18:37.815Z,22.75
2019-05-20T04:20:41.931Z,22.25
2019-05-20T04:22:45.977Z,24.60
2019-05-20T04:24:51.887Z,22.35
2019-05-20T04:27:00.708Z,23.62
2019-05-20T04:29:04.714Z,22.45
2019-05-20T04:31:08.825Z,21.05
2019-05-20T04:33:14.748Z,22.27
2019-05-20T04:35:23.180Z,23.35
2019-05-20T04:37:28.222Z,23.52
2019-05-20T04:39:32.333Z,23.80
2019-05-20T04:41:36.465Z,22.13
2019-05-20T04:43:42.088Z,21.45
2019-05-20T04:45:46.372Z,21.33
2019-05-20T04:47:50.412Z,23.55
2019-05-20T04:49:54.418Z,22.55
2019-05-20T04:51:58.435Z,21.62
2019-05-20T04:54:05.400Z,22.25
2019-05-20T04:56:09.512Z,22.13
2019-05-20T04:58:16.507Z,21.07
2019-05-20T05:00:39.657Z,20.15
2019-05-20T05:02:44.037Z,20.17
2019-05-20T05:04:48.163Z,21.68
2019-05-20T05:06:52.079Z,21.07
2019-05-20T05:08:55.987Z,21.48
2019-05-20T05:11:00.094Z,20.75
2019-05-20T05:13:04.082Z,22.05
2019-05-20T05:15:10.171Z,20.75
2019-05-20T05:17:16.760Z,20.45
2019-05-20T05:19:20.714Z,20.62
2019-05-20T05:21:24.840Z,21.77
2019-05-20T05:23:28.858Z,21.57
2019-05-20T05:25:33.063Z,23.83
2019-05-20T05:27:37.176Z,20.43
2019-05-20T05:29:41.181Z,23.40
2019-05-20T05:31:45.084Z,22.40
2019-05-20T05:33:49.013Z,23.57
2019-05-20T05:35:53.857Z,23.70
2019-05-20T05:38:02.025Z,21.73
2019-05-20T05:40:08.232Z,23.60
2019-05-20T05:42:12.263Z,21.62
2019-05-20T05:44:16.129Z,22.80
2019-05-20T05:46:21.539Z,21.97
2019-05-20T05:48:25.477Z,22.13
2019-05-20T05:50:29.551Z,22.95
2019-05-20T05:52:35.095Z,21.05
2019-05-20T05:54:39.115Z,20.92
2019-05-20T05:56:43.452Z,21.80
2019-05-20T05:58:49.167Z,21.10
2019-05-20T06:00:53.190Z,22.80
2019-05-20T06:02:59.152Z,22.73
2019-05-20T06:05:03.155Z,20.25
2019-05-20T06:07:07.042Z,19.77
2019-05-20T06:09:10.949Z,20.95
2019-05-20T06:11:14.954Z,21.10
2019-05-20T06:13:18.834Z,23.65
2019-05-20T06:15:23.379Z,20.82
2019-05-20T06:17:27.554Z,21.05
2019-05-20T06:19:31.494Z,22.00
2019-05-20T06:21:35.534Z,21.37
2019-05-20T06:23:39.841Z,21.02
2019-05-20T06:25:43.927Z,22.27
2019-05-20T06:27:48.187Z,22.27
2019-05-20T06:29:52.366Z,25.27
2019-05-20T06:31:56.298Z,21.97
2019-05-20T06:34:00.475Z,24.82
2019-05-20T06:36:04.402Z,23.07
2019-05-20T06:38:10.113Z,22.40
2019-05-20T06:40:14.328Z,22.22
2019-05-20T06:42:18.184Z,23.07
2019-05-20T06:44:22.176Z,24.72
2019-05-20T06:46:26.161Z,24.35
2019-05-20T06:48:30.164Z,23.07
2019-05-20T06:50:34.174Z,25.10
2019-05-20T06:52:38.095Z,22.50
2019-05-20T06:54:42.227Z,22.13
2019-05-20T06:56:46.583Z,23.95
2019-05-20T06:58:51.014Z,22.58
2019-05-20T07:00:54.885Z,27.02
2019-05-20T07:02:58.751Z,28.52
2019-05-20T07:05:02.631Z,27.52
2019-05-20T07:07:19.864Z,24.85
2019-05-20T07:09:12.186Z,25.72
2019-05-20T07:11:16.298Z,27.05
2019-05-20T07:13:20.235Z,24.52
2019-05-20T07:15:24.310Z,27.07
2019-05-20T07:17:28.324Z,25.27
2019-05-20T07:19:35.294Z,25.62
2019-05-20T07:21:39.475Z,25.35
2019-05-20T07:23:43.374Z,23.92
2019-05-20T07:25:47.363Z,23.52
2019-05-20T07:27:51.327Z,24.25
2019-05-20T07:29:55.435Z,24.40
2019-05-20T07:31:59.393Z,25.32
2019-05-20T07:34:03.367Z,24.23
2019-05-20T07:36:09.977Z,24.57
2019-05-20T07:38:12.897Z,25.43
2019-05-20T07:40:19.775Z,24.87
2019-05-20T07:42:25.323Z,23.98
2019-05-20T07:44:29.221Z,24.18
2019-05-20T07:46:33.418Z,24.63
2019-05-20T07:48:38.219Z,23.45
2019-05-20T07:50:45.547Z,24.92
2019-05-20T07:52:49.617Z,23.27
2019-05-20T07:54:54.735Z,25.70
2019-05-20T07:57:01.605Z,23.10
2019-05-20T07:59:07.616Z,25.08
2019-05-20T08:01:11.536Z,24.72
2019-05-20T08:03:15.503Z,24.00
2019-05-20T08:05:19.335Z,25.50
2019-05-20T08:07:29.916Z,26.37
2019-05-20T08:09:28.888Z,26.95
2019-05-20T08:11:32.797Z,26.25
2019-05-20T08:13:36.764Z,26.97
2019-05-20T08:15:40.689Z,27.13
2019-05-20T08:17:44.571Z,29.32
2019-05-20T08:19:49.027Z,27.17
2019-05-20T08:21:53.034Z,26.70
2019-05-20T08:23:57.041Z,24.23
2019-05-20T08:26:01.052Z,28.42
2019-05-20T08:28:05.162Z,28.65
2019-05-20T08:30:13.698Z,29.60
2019-05-20T08:32:15.475Z,27.55
2019-05-20T08:34:19.485Z,26.68
2019-05-20T08:36:23.444Z,28.75
2019-05-20T08:38:27.450Z,28.80
2019-05-20T08:40:31.457Z,28.60
2019-05-20T08:42:37.885Z,29.55
2019-05-20T08:44:41.523Z,30.90
2019-05-20T08:46:47.737Z,28.17
2019-05-20T08:48:51.773Z,29.25
2019-05-20T08:50:55.797Z,29.52
2019-05-20T08:53:07.619Z,28.25
2019-05-20T08:55:11.627Z,25.37
2019-05-20T08:57:15.604Z,28.83
2019-05-20T08:59:20.028Z,28.42
2019-05-20T09:01:23.917Z,27.10
2019-05-20T09:03:30.343Z,29.72
2019-05-20T09:05:33.667Z,28.32
2019-05-20T09:07:37.676Z,30.45
2019-05-20T09:09:42.744Z,29.82
2019-05-20T09:11:47.956Z,28.87
2019-05-20T09:13:52.431Z,29.32
2019-05-20T09:15:56.484Z,30.05
2019-05-20T09:18:01.933Z,27.48
2019-05-20T09:20:07.434Z,29.55
2019-05-20T09:22:11.321Z,28.15
2019-05-20T09:24:18.627Z,29.30
2019-05-20T09:26:20.824Z,27.40
2019-05-20T09:28:25.034Z,29.00
2019-05-20T09:30:28.986Z,32.80
2019-05-20T09:32:33.140Z,31.70
2019-05-20T09:34:37.264Z,30.37
2019-05-20T09:36:41.278Z,31.73
2019-05-20T09:38:45.486Z,31.55
2019-05-20T09:40:49.881Z,32.10
2019-05-20T09:42:53.809Z,33.15
2019-05-20T09:45:01.227Z,32.40
2019-05-20T09:47:03.194Z,31.17
2019-05-20T09:49:07.367Z,30.17
2019-05-20T09:51:11.291Z,31.60
2019-05-20T09:53:15.133Z,30.50
2019-05-20T09:55:19.032Z,32.20
2019-05-20T09:57:24.455Z,32.15
2019-05-20T09:59:42.100Z,31.55
2019-05-20T10:01:33.894Z,35.05
2019-05-20T10:03:37.771Z,32.85
2019-05-20T10:05:41.622Z,36.23
2019-05-20T10:07:45.688Z,32.53
2019-05-20T10:09:49.815Z,34.55
2019-05-20T10:11:53.713Z,36.65
2019-05-20T10:13:57.811Z,35.28
2019-05-20T10:16:01.873Z,36.50
2019-05-20T10:18:05.931Z,34.80
2019-05-20T10:20:11.176Z,36.73
2019-05-20T10:22:15.377Z,37.95
2019-05-20T10:24:19.390Z,39.92
2019-05-20T10:26:23.404Z,41.73
2019-05-20T10:28:27.507Z,41.45
2019-05-20T10:30:31.516Z,38.28
2019-05-20T10:32:38.594Z,42.43
2019-05-20T10:34:42.515Z,40.38
2019-05-20T10:36:46.478Z,40.12
2019-05-20T10:38:58.701Z,41.40
2019-05-20T10:40:56.103Z,41.48
2019-05-20T10:42:59.990Z,41.80
2019-05-20T10:45:07.178Z,41.10
2019-05-20T10:47:11.410Z,43.38
2019-05-20T10:49:15.311Z,42.27
2019-05-20T10:51:19.283Z,44.03
2019-05-20T10:53:23.227Z,39.48
2019-05-20T10:55:27.086Z,41.10
2019-05-20T10:57:31.088Z,39.73
2019-05-20T10:59:35.092Z,35.55
2019-05-20T11:01:38.996Z,31.60
2019-05-20T11:03:43.066Z,32.60
2019-05-20T11:05:47.011Z,30.52
2019-05-20T11:07:51.037Z,29.98
2019-05-20T11:09:55.231Z,29.57
2019-05-20T11:12:01.803Z,28.57
2019-05-20T11:14:05.917Z,28.05
2019-05-20T11:16:11.556Z,24.95
2019-05-20T11:18:15.498Z,21.05
2019-05-20T11:20:19.573Z,17.80
2019-05-20T11:22:23.684Z,16.50
2019-05-20T11:24:27.735Z,16.45
2019-05-20T11:26:31.908Z,16.23
2019-05-20T11:28:36.014Z,17.07
2019-05-20T11:30:39.857Z,17.12
2019-05-20T11:32:43.910Z,18.77
2019-05-20T11:34:47.982Z,16.80
2019-05-20T11:36:51.989Z,18.00
2019-05-20T11:38:56.003Z,18.77
2019-05-20T11:40:59.954Z,21.25
2019-05-20T11:43:03.965Z,18.37
2019-05-20T11:45:11.757Z,15.90
2019-05-20T11:47:15.974Z,10.85
2019-05-20T11:49:19.860Z,9.58
2019-05-20T11:51:23.751Z,8.55
2019-05-20T11:53:27.790Z,8.05
2019-05-20T11:55:31.927Z,6.25
2019-05-20T11:57:36.084Z,6.33
2019-05-20T11:59:39.943Z,5.65
2019-05-20T12:01:44.028Z,4.80
2019-05-20T12:03:48.034Z,3.87
2019-05-20T12:05:52.254Z,4.40
2019-05-20T12:07:56.269Z,3.77
2019-05-20T12:10:00.478Z,3.65
2019-05-20T12:12:04.580Z,2.47
2019-05-20T12:14:08.466Z,1.85
2019-05-20T12:16:12.489Z,1.77
2019-05-20T12:18:16.498Z,1.30
2019-05-20T12:20:20.638Z,1.17
2019-05-20T12:22:24.528Z,1.30
2019-05-20T12:24:28.811Z,1.10
2019-05-20T12:26:32.788Z,1.17
2019-05-20T12:28:37.052Z,1.60
2019-05-20T12:30:41.181Z,2.00
2019-05-20T12:32:45.254Z,1.47
2019-05-20T12:34:49.177Z,1.35
2019-05-20T12:36:53.691Z,1.25
2019-05-20T12:38:58.150Z,1.17
2019-05-20T12:41:02.351Z,1.75
2019-05-20T12:43:06.641Z,1.60
2019-05-20T12:45:12.048Z,1.70
2019-05-20T12:47:16.159Z,2.00
2019-05-20T12:49:20.639Z,1.67
2019-05-20T12:51:24.931Z,2.00
2019-05-20T12:53:29.218Z,1.87
2019-05-20T12:55:33.331Z,1.22
2019-05-20T12:57:37.359Z,1.55
2019-05-20T12:59:41.569Z,1.50
2019-05-20T13:01:45.777Z,1.60
2019-05-20T13:03:49.652Z,1.85
2019-05-20T13:05:53.691Z,1.75
2019-05-20T13:07:57.903Z,2.02
2019-05-20T13:10:03.213Z,1.62
2019-05-20T13:12:07.709Z,1.85
2019-05-20T13:14:11.640Z,1.72
2019-05-20T13:16:15.569Z,1.55
2019-05-20T13:18:19.422Z,1.50
2019-05-20T13:20:25.367Z,1.60
2019-05-20T13:22:29.042Z,1.62
2019-05-20T13:24:33.037Z,1.50
2019-05-20T13:26:37.053Z,1.80
2019-05-20T13:28:41.256Z,1.67
2019-05-20T13:30:45.982Z,1.60
2019-05-20T13:32:50.090Z,1.52
2019-05-20T13:34:53.982Z,1.50
2019-05-20T13:36:57.891Z,1.70
2019-05-20T13:39:01.806Z,1.70
2019-05-20T13:41:05.740Z,1.70
2019-05-20T13:43:09.599Z,1.42
2019-05-20T13:45:14.585Z,1.40
2019-05-20T13:47:18.662Z,1.35
2019-05-20T13:49:22.667Z,1.45
2019-05-20T13:51:26.672Z,1.67
2019-05-20T13:53:30.733Z,1.80
2019-05-20T13:55:34.994Z,1.77
2019-05-20T13:57:40.017Z,1.70
2019-05-20T13:59:44.059Z,1.60
2019-05-20T14:01:48.083Z,1.60
2019-05-20T14:03:52.058Z,1.62
2019-05-20T14:05:56.056Z,1.40
2019-05-20T14:07:59.952Z,1.50
2019-05-20T14:10:12.365Z,1.50
2019-05-20T14:12:16.477Z,1.60
2019-05-20T14:14:20.333Z,1.50
2019-05-20T14:16:24.167Z,1.50
2019-05-20T14:18:28.065Z,1.62
2019-05-20T14:20:31.889Z,1.70
2019-05-20T14:22:35.746Z,1.80
2019-05-20T14:24:39.826Z,1.50
2019-05-20T14:26:44.003Z,1.40
2019-05-20T14:28:48.053Z,1.25
2019-05-20T14:30:52.031Z,1.62
2019-05-20T14:32:56.351Z,1.40
2019-05-20T14:35:00.367Z,1.87
2019-05-20T14:37:04.464Z,1.40
2019-05-20T14:39:10.138Z,1.42
2019-05-20T14:41:21.710Z,1.45
2019-05-20T14:43:19.663Z,1.52
2019-05-20T14:45:23.670Z,1.55
2019-05-20T14:47:27.678Z,1.50
2019-05-20T14:49:31.693Z,1.80
2019-05-20T14:51:38.663Z,2.00
2019-05-20T14:53:45.434Z,4.25
2019-05-20T14:55:49.646Z,1.90
2019-05-20T14:57:56.521Z,1.70
2019-05-20T15:00:04.716Z,1.80
2019-05-20T15:02:08.718Z,4.05
2019-05-20T15:04:12.602Z,3.60
2019-05-20T15:06:16.503Z,2.80
2019-05-20T15:08:20.354Z,3.75
2019-05-20T15:10:24.512Z,3.70
2019-05-20T15:12:28.672Z,2.98
2019-05-20T15:14:32.595Z,2.05
2019-05-20T15:16:36.589Z,3.95
2019-05-20T15:18:40.446Z,13.43
2019-05-20T15:20:45.866Z,3.15
2019-05-20T15:22:49.821Z,11.33
2019-05-20T15:24:53.911Z,25.32
2019-05-20T15:26:58.110Z,4.60
2019-05-20T15:29:03.372Z,9.63
2019-05-20T15:31:08.025Z,3.17
2019-05-20T15:33:12.048Z,3.15
2019-05-20T15:35:19.215Z,24.70
2019-05-20T15:37:23.224Z,25.97
2019-05-20T15:39:27.241Z,8.98
2019-05-20T15:41:31.252Z,15.15
2019-05-20T15:43:36.593Z,5.65
2019-05-20T15:45:40.662Z,2.47
2019-05-20T15:47:44.792Z,2.62
2019-05-20T15:49:48.799Z,34.18
2019-05-20T15:51:52.808Z,7.10
2019-05-20T15:53:56.916Z,12.23
2019-05-20T15:56:00.921Z,22.67
2019-05-20T15:58:04.935Z,9.53
2019-05-20T16:00:09.557Z,12.80
2019-05-20T16:02:13.590Z,6.22
2019-05-20T16:04:17.779Z,16.95
2019-05-20T16:06:21.883Z,26.87
2019-05-20T16:08:25.904Z,3.27
2019-05-20T16:10:30.015Z,17.23
2019-05-20T16:12:34.459Z,5.42
2019-05-20T16:14:41.416Z,13.08
2019-05-20T16:16:47.043Z,8.15
2019-05-20T16:18:50.907Z,13.48
2019-05-20T16:20:54.862Z,11.90
2019-05-20T16:23:01.930Z,7.08
2019-05-20T16:25:09.119Z,4.37
2019-05-20T16:27:13.230Z,6.47
2019-05-20T16:29:17.334Z,6.47
2019-05-20T16:31:21.544Z,5.85
2019-05-20T16:33:25.452Z,3.20
2019-05-20T16:35:32.233Z,3.67
2019-05-20T16:37:36.242Z,5.35
2019-05-20T16:39:40.136Z,2.60
2019-05-20T16:41:44.244Z,5.10
2019-05-20T16:43:48.150Z,2.30
2019-05-20T16:45:53.582Z,2.58
2019-05-20T16:47:57.496Z,2.12
2019-05-20T16:50:01.506Z,2.65
2019-05-20T16:52:05.802Z,2.55
2019-05-20T16:54:09.967Z,2.90
2019-05-20T16:56:14.036Z,2.40
2019-05-20T16:58:18.041Z,3.42
2019-05-20T17:00:31.261Z,3.55
2019-05-20T17:02:29.249Z,2.20
2019-05-20T17:04:33.140Z,2.50
2019-05-20T17:06:37.047Z,3.27
2019-05-20T17:08:41.258Z,2.55
2019-05-20T17:10:45.409Z,4.47
2019-05-20T17:12:49.785Z,2.45
2019-05-20T17:14:53.911Z,2.17
2019-05-20T17:16:58.281Z,5.15
2019-05-20T17:19:07.377Z,2.85
2019-05-20T17:21:12.024Z,2.72
2019-05-20T17:23:16.828Z,3.20
2019-05-20T17:25:21.577Z,4.10
2019-05-20T17:27:25.727Z,3.10
2019-05-20T17:29:34.568Z,4.95
2019-05-20T17:31:39.806Z,5.60
2019-05-20T17:33:46.232Z,3.22
2019-05-20T17:35:52.719Z,3.95
2019-05-20T17:37:56.734Z,3.00
2019-05-20T17:40:00.550Z,2.70
2019-05-20T17:42:06.080Z,2.87
2019-05-20T17:44:11.030Z,3.00
2019-05-20T17:46:15.826Z,4.08
2019-05-20T17:48:19.789Z,4.58
2019-05-20T17:50:23.836Z,4.55
2019-05-20T17:52:27.843Z,3.72
2019-05-20T17:54:31.854Z,4.75
2019-05-20T17:56:36.067Z,3.80
2019-05-20T17:58:39.970Z,3.40
2019-05-20T18:00:44.017Z,3.50
2019-05-20T18:02:47.986Z,3.65
2019-05-20T18:04:51.947Z,3.60
2019-05-20T18:06:55.903Z,3.67
2019-05-20T18:09:01.574Z,4.28
2019-05-20T18:11:05.665Z,8.95
2019-05-20T18:13:09.502Z,5.28
2019-05-20T18:15:13.946Z,13.18
2019-05-20T18:17:17.851Z,7.70
2019-05-20T18:19:21.897Z,8.70
2019-05-20T18:21:25.796Z,13.25
2019-05-20T18:23:29.798Z,13.85
2019-05-20T18:25:33.692Z,11.05
2019-05-20T18:27:38.431Z,6.40
2019-05-20T18:29:42.970Z,11.63
2019-05-20T18:31:46.838Z,5.55
2019-05-20T18:33:50.866Z,10.45
2019-05-20T18:35:54.772Z,8.85
2019-05-20T18:38:02.546Z,25.20
2019-05-20T18:40:15.005Z,7.87
2019-05-20T18:42:22.961Z,5.62
2019-05-20T18:44:27.041Z,7.35
2019-05-20T18:46:30.927Z,6.50
2019-05-20T18:48:34.844Z,9.53
2019-05-20T18:50:38.799Z,7.15
2019-05-20T18:52:42.807Z,6.53
2019-05-20T18:54:46.837Z,10.40
2019-05-20T18:56:50.933Z,14.53
2019-05-20T18:58:54.863Z,8.50
2019-05-20T19:00:58.719Z,5.10
2019-05-20T19:03:02.741Z,7.85
2019-05-20T19:05:08.654Z,6.37
2019-05-20T19:07:12.629Z,10.05
2019-05-20T19:09:16.603Z,9.83
2019-05-20T19:11:20.615Z,5.72
2019-05-20T19:13:24.498Z,6.15
2019-05-20T19:15:30.156Z,11.12
2019-05-20T19:17:36.924Z,6.55
2019-05-20T19:19:41.050Z,5.70
2019-05-20T19:21:44.964Z,12.80
2019-05-20T19:23:48.964Z,7.62
2019-05-20T19:25:52.873Z,5.40
2019-05-20T19:27:56.876Z,5.42
2019-05-20T19:30:02.295Z,4.83
2019-05-20T19:32:07.038Z,4.83
2019-05-20T19:34:10.951Z,5.10
2019-05-20T19:36:14.970Z,4.83
2019-05-20T19:38:19.076Z,5.03
2019-05-20T19:40:22.940Z,4.75
2019-05-20T19:42:26.841Z,4.72
2019-05-20T19:44:30.761Z,5.42
2019-05-20T19:46:34.683Z,5.53
2019-05-20T19:48:38.741Z,5.47
2019-05-20T19:50:42.802Z,5.65
2019-05-20T19:52:46.725Z,5.80
2019-05-20T19:54:50.721Z,5.50
2019-05-20T19:56:54.703Z,5.08
2019-05-20T19:58:58.629Z,5.55
2019-05-20T20:01:02.537Z,5.25
2019-05-20T20:03:06.434Z,5.17
2019-05-20T20:05:10.449Z,5.78
2019-05-20T20:07:15.345Z,6.08
2019-05-20T20:09:19.382Z,6.15
2019-05-20T20:11:24.867Z,6.08
2019-05-20T20:13:33.490Z,5.60
2019-05-20T20:15:35.880Z,5.87
2019-05-20T20:17:39.820Z,6.55
2019-05-20T20:19:43.728Z,6.83
2019-05-20T20:21:47.633Z,7.22
2019-05-20T20:23:51.634Z,6.95
2019-05-20T20:25:57.315Z,7.40
2019-05-20T20:28:02.742Z,7.17
2019-05-20T20:30:08.396Z,7.40
2019-05-20T20:32:12.238Z,7.28
2019-05-20T20:34:18.943Z,7.90
2019-05-20T20:36:22.931Z,6.65
2019-05-20T20:38:26.863Z,6.92
2019-05-20T20:40:30.758Z,7.22
2019-05-20T20:42:34.664Z,7.25
2019-05-20T20:44:38.803Z,7.62
2019-05-20T20:46:42.672Z,6.50
2019-05-20T20:48:46.788Z,7.10
2019-05-20T20:50:50.699Z,7.28
2019-05-20T20:52:54.803Z,6.90
2019-05-20T20:54:58.668Z,7.70
2019-05-20T20:57:02.717Z,7.70
2019-05-20T20:59:06.645Z,8.15
2019-05-20T21:01:10.632Z,7.40
2019-05-20T21:03:14.540Z,8.43
2019-05-20T21:05:18.644Z,8.25
2019-05-20T21:07:22.550Z,9.58
2019-05-20T21:09:26.596Z,9.75
2019-05-20T21:11:30.546Z,9.48
2019-05-20T21:13:34.522Z,9.38
2019-05-20T21:15:38.583Z,10.80
2019-05-20T21:17:42.459Z,9.45
2019-05-20T21:19:46.390Z,9.73
2019-05-20T21:21:50.405Z,10.55
2019-05-20T21:23:54.293Z,10.20
2019-05-20T21:25:58.213Z,9.80
2019-05-20T21:28:02.042Z,9.30
2019-05-20T21:30:08.484Z,9.58
2019-05-20T21:32:12.339Z,9.15
2019-05-20T21:34:16.294Z,10.13
2019-05-20T21:36:20.302Z,9.75
2019-05-20T21:38:24.309Z,10.70
2019-05-20T21:40:28.226Z,9.93
2019-05-20T21:42:32.331Z,9.23
2019-05-20T21:44:36.319Z,9.05
2019-05-20T21:46:40.641Z,10.10
2019-05-20T21:48:44.474Z,9.65
2019-05-20T21:50:48.433Z,9.55
2019-05-20T21:52:52.465Z,9.10
2019-05-20T21:54:56.507Z,9.40
2019-05-20T21:57:00.371Z,9.23
2019-05-20T21:59:04.485Z,10.20
2019-05-20T22:01:08.592Z,9.30
2019-05-20T22:03:23.860Z,9.30
2019-05-20T22:05:18.348Z,8.90
2019-05-20T22:07:22.457Z,9.35
2019-05-20T22:09:26.365Z,9.18
2019-05-20T22:11:30.290Z,9.23
2019-05-20T22:13:34.087Z,9.85
2019-05-20T22:15:38.086Z,10.13
2019-05-20T22:17:42.070Z,9.53
2019-05-20T22:19:46.094Z,10.28
2019-05-20T22:22:06.714Z,9.18
2019-05-20T22:24:10.697Z,10.13
2019-05-20T22:26:14.706Z,9.58
2019-05-20T22:28:18.708Z,10.05
2019-05-20T22:30:22.857Z,11.65
2019-05-20T22:32:26.838Z,10.90
2019-05-20T22:34:30.838Z,9.73
2019-05-20T22:36:34.778Z,9.88
2019-05-20T22:38:39.917Z,10.20
2019-05-20T22:40:44.192Z,9.83
2019-05-20T22:42:48.104Z,9.50
2019-05-20T22:44:52.343Z,9.55
2019-05-20T22:46:56.420Z,9.08
2019-05-20T22:49:01.051Z,9.63
2019-05-20T22:51:05.028Z,10.55
2019-05-20T22:53:08.934Z,9.78
2019-05-20T22:55:13.392Z,9.55
2019-05-20T22:57:18.080Z,9.53
2019-05-20T22:59:22.052Z,8.88
2019-05-20T23:01:25.997Z,10.05
2019-05-20T23:03:29.931Z,9.43
2019-05-20T23:05:34.024Z,9.93
2019-05-20T23:07:37.903Z,8.70
2019-05-20T23:09:42.100Z,9.63
2019-05-20T23:11:46.969Z,9.25
2019-05-20T23:13:50.875Z,9.50
2019-05-20T23:15:55.807Z,8.65
2019-05-20T23:18:00.947Z,8.45
2019-05-20T23:20:06.609Z,9.00
2019-05-20T23:22:10.847Z,9.38
2019-05-20T23:24:15.255Z,9.48
2019-05-20T23:26:19.067Z,8.55
2019-05-20T23:28:24.656Z,8.78
2019-05-20T23:30:28.504Z,8.88
2019-05-20T23:32:32.575Z,8.78
2019-05-20T23:34:38.639Z,8.28
2019-05-20T23:36:42.639Z,8.35
2019-05-20T23:38:46.545Z,9.05
2019-05-20T23:40:50.594Z,8.90
2019-05-20T23:42:56.022Z,9.10
2019-05-20T23:45:00.001Z,8.23
2019-05-20T23:47:04.223Z,9.00
2019-05-20T23:49:08.160Z,9.23
2019-05-20T23:51:12.848Z,8.10
2019-05-20T23:53:17.525Z,8.30
2019-05-20T23:55:21.435Z,8.98
2019-05-20T23:57:25.415Z,9.20
2019-05-20T23:59:30.697Z,8.85
